sensor_id;sensor_type;location;lat;lon;timestamp;pressure;altitude;pressure_sealevel;temperature;humidity
49044;BME280;34860;48.066;14.124;2023-09-19T00:02:35;96316.22;;;18.32;65.50
49044;BME280;34860;48.066;14.124;2023-09-19T00:05:26;96315.47;;;18.32;65.50
49044;BME280;34860;48.066;14.124;2023-09-19T00:08:15;96321.09;;;18.32;65.69
49044;BME280;34860;48.066;14.124;2023-09-19T00:11:03;96315.72;;;18.34;65.61
49044;BME280;34860;48.066;14.124;2023-09-19T00:13:52;96317.00;;;18.33;65.60
49044;BME280;34860;48.066;14.124;2023-09-19T00:16:42;96312.16;;;18.33;65.58
49044;BME280;34860;48.066;14.124;2023-09-19T00:19:32;96305.25;;;18.34;65.66
49044;BME280;34860;48.066;14.124;2023-09-19T00:22:20;96327.25;;;18.36;65.58
49044;BME280;34860;48.066;14.124;2023-09-19T00:25:08;96317.28;;;18.35;65.73
49044;BME280;34860;48.066;14.124;2023-09-19T00:27:58;96330.56;;;18.34;65.65
49044;BME280;34860;48.066;14.124;2023-09-19T00:30:46;96329.78;;;18.34;65.75
49044;BME280;34860;48.066;14.124;2023-09-19T00:33:36;96336.97;;;18.35;65.84
49044;BME280;34860;48.066;14.124;2023-09-19T00:36:26;96336.19;;;18.34;65.69
49044;BME280;34860;48.066;14.124;2023-09-19T00:39:16;96336.97;;;18.35;65.72
49044;BME280;34860;48.066;14.124;2023-09-19T00:42:07;96339.00;;;18.34;65.86
49044;BME280;34860;48.066;14.124;2023-09-19T00:44:54;96332.13;;;18.36;65.82
49044;BME280;34860;48.066;14.124;2023-09-19T00:47:44;96335.69;;;18.36;65.95
49044;BME280;34860;48.066;14.124;2023-09-19T00:50:33;96326.47;;;18.36;65.90
49044;BME280;34860;48.066;14.124;2023-09-19T00:53:24;96335.69;;;18.36;65.99
49044;BME280;34860;48.066;14.124;2023-09-19T00:56:14;96329.28;;;18.36;65.90
49044;BME280;34860;48.066;14.124;2023-09-19T00:59:06;96338.50;;;18.36;66.00
49044;BME280;34860;48.066;14.124;2023-09-19T01:01:54;96336.19;;;18.34;65.96
49044;BME280;34860;48.066;14.124;2023-09-19T01:04:44;96343.09;;;18.33;66.09
49044;BME280;34860;48.066;14.124;2023-09-19T01:07:32;96349.50;;;18.34;66.20
49044;BME280;34860;48.066;14.124;2023-09-19T01:10:23;96340.00;;;18.31;66.06
49044;BME280;34860;48.066;14.124;2023-09-19T01:13:20;96331.28;;;18.29;66.15
49044;BME280;34860;48.066;14.124;2023-09-19T01:16:19;96337.91;;;18.26;66.27
49044;BME280;34860;48.066;14.124;2023-09-19T01:19:26;96338.91;;;18.23;66.40
49044;BME280;34860;48.066;14.124;2023-09-19T01:22:35;96338.84;;;18.18;66.31
49044;BME280;34860;48.066;14.124;2023-09-19T01:25:49;96342.34;;;18.12;66.45
49044;BME280;34860;48.066;14.124;2023-09-19T01:28:50;96327.50;;;18.06;66.53
49044;BME280;34860;48.066;14.124;2023-09-19T01:31:42;96325.09;;;17.99;66.60
49044;BME280;34860;48.066;14.124;2023-09-19T01:34:45;96334.25;;;17.94;66.57
49044;BME280;34860;48.066;14.124;2023-09-19T01:37:35;96335.75;;;17.89;66.75
49044;BME280;34860;48.066;14.124;2023-09-19T01:40:24;96321.88;;;17.86;66.83
49044;BME280;34860;48.066;14.124;2023-09-19T01:43:32;96301.63;;;17.82;66.96
49044;BME280;34860;48.066;14.124;2023-09-19T01:46:25;96303.69;;;17.81;67.02
49044;BME280;34860;48.066;14.124;2023-09-19T01:49:26;96295.19;;;17.75;66.98
49044;BME280;34860;48.066;14.124;2023-09-19T01:52:15;96296.16;;;17.72;67.13
49044;BME280;34860;48.066;14.124;2023-09-19T01:55:06;96296.41;;;17.69;67.13
49044;BME280;34860;48.066;14.124;2023-09-19T01:58:01;96287.44;;;17.65;67.26
49044;BME280;34860;48.066;14.124;2023-09-19T02:00:52;96301.47;;;17.65;67.34
49044;BME280;34860;48.066;14.124;2023-09-19T02:03:43;96305.75;;;17.60;67.29
49044;BME280;34860;48.066;14.124;2023-09-19T02:06:33;96292.22;;;17.58;67.24
49044;BME280;34860;48.066;14.124;2023-09-19T02:09:21;96295.50;;;17.57;67.34
49044;BME280;34860;48.066;14.124;2023-09-19T02:12:10;96307.50;;;17.57;67.28
49044;BME280;34860;48.066;14.124;2023-09-19T02:14:58;96293.94;;;17.56;67.35
49044;BME280;34860;48.066;14.124;2023-09-19T02:17:47;96292.41;;;17.55;67.30
49044;BME280;34860;48.066;14.124;2023-09-19T02:20:35;96293.69;;;17.54;67.28
49044;BME280;34860;48.066;14.124;2023-09-19T02:23:25;96281.66;;;17.53;67.57
49044;BME280;34860;48.066;14.124;2023-09-19T02:26:13;96294.16;;;17.52;67.40
49044;BME280;34860;48.066;14.124;2023-09-19T02:29:01;96288.56;;;17.52;67.41
49044;BME280;34860;48.066;14.124;2023-09-19T02:31:51;96294.66;;;17.51;67.61
49044;BME280;34860;48.066;14.124;2023-09-19T02:34:40;96292.34;;;17.49;67.36
49044;BME280;34860;48.066;14.124;2023-09-19T02:37:28;96294.41;;;17.49;67.69
49044;BME280;34860;48.066;14.124;2023-09-19T02:40:18;96301.28;;;17.48;67.63
49044;BME280;34860;48.066;14.124;2023-09-19T02:43:06;96304.56;;;17.46;67.75
49044;BME280;34860;48.066;14.124;2023-09-19T02:45:55;96307.88;;;17.45;67.52
49044;BME280;34860;48.066;14.124;2023-09-19T02:48:44;96307.88;;;17.45;67.54
49044;BME280;34860;48.066;14.124;2023-09-19T02:51:32;96311.94;;;17.43;67.68
49044;BME280;34860;48.066;14.124;2023-09-19T02:54:21;96323.66;;;17.42;67.70
49044;BME280;34860;48.066;14.124;2023-09-19T02:57:11;96333.66;;;17.43;67.66
49044;BME280;34860;48.066;14.124;2023-09-19T03:00:01;96339.25;;;17.43;67.66
49044;BME280;34860;48.066;14.124;2023-09-19T03:02:52;96341.31;;;17.42;67.65
49044;BME280;34860;48.066;14.124;2023-09-19T03:05:41;96342.56;;;17.41;67.63
49044;BME280;34860;48.066;14.124;2023-09-19T03:08:36;96347.41;;;17.41;67.45
49044;BME280;34860;48.066;14.124;2023-09-19T03:11:26;96348.09;;;17.36;67.54
49044;BME280;34860;48.066;14.124;2023-09-19T03:14:18;96351.41;;;17.34;67.47
49044;BME280;34860;48.066;14.124;2023-09-19T03:17:08;96354.13;;;17.29;67.44
49044;BME280;34860;48.066;14.124;2023-09-19T03:19:56;96347.94;;;17.24;67.43
49044;BME280;34860;48.066;14.124;2023-09-19T03:22:44;96350.22;;;17.20;67.61
49044;BME280;34860;48.066;14.124;2023-09-19T03:25:35;96346.31;;;17.18;67.60
49044;BME280;34860;48.066;14.124;2023-09-19T03:28:24;96342.47;;;17.15;67.62
49044;BME280;34860;48.066;14.124;2023-09-19T03:31:17;96335.31;;;17.14;67.60
49044;BME280;34860;48.066;14.124;2023-09-19T03:34:06;96337.34;;;17.14;67.71
49044;BME280;34860;48.066;14.124;2023-09-19T03:36:56;96338.13;;;17.14;67.68
49044;BME280;34860;48.066;14.124;2023-09-19T03:39:44;96342.97;;;17.14;67.60
49044;BME280;34860;48.066;14.124;2023-09-19T03:42:32;96336.56;;;17.13;67.69
49044;BME280;34860;48.066;14.124;2023-09-19T03:45:22;96344.22;;;17.13;67.57
49044;BME280;34860;48.066;14.124;2023-09-19T03:48:14;96337.34;;;17.14;67.63
49044;BME280;34860;48.066;14.124;2023-09-19T03:51:03;96344.97;;;17.13;67.59
49044;BME280;34860;48.066;14.124;2023-09-19T03:53:51;96342.19;;;17.13;67.63
49044;BME280;34860;48.066;14.124;2023-09-19T03:56:39;96342.19;;;17.13;67.49
49044;BME280;34860;48.066;14.124;2023-09-19T03:59:29;96347.03;;;17.13;67.56
49044;BME280;34860;48.066;14.124;2023-09-19T04:02:17;96337.06;;;17.12;67.64
49044;BME280;34860;48.066;14.124;2023-09-19T04:05:12;96339.38;;;17.13;67.49
49044;BME280;34860;48.066;14.124;2023-09-19T04:08:00;96344.22;;;17.13;67.61
49044;BME280;34860;48.066;14.124;2023-09-19T04:10:48;96342.66;;;17.12;67.42
49044;BME280;34860;48.066;14.124;2023-09-19T04:13:36;96349.06;;;17.12;67.49
49044;BME280;34860;48.066;14.124;2023-09-19T04:16:24;96339.84;;;17.12;67.58
49044;BME280;34860;48.066;14.124;2023-09-19T04:19:13;96349.84;;;17.13;67.70
49044;BME280;34860;48.066;14.124;2023-09-19T04:22:03;96347.78;;;17.13;67.63
49044;BME280;34860;48.066;14.124;2023-09-19T04:24:51;96347.31;;;17.15;67.65
49044;BME280;34860;48.066;14.124;2023-09-19T04:27:39;96357.00;;;17.14;67.62
49044;BME280;34860;48.066;14.124;2023-09-19T04:30:28;96364.47;;;17.17;67.53
49044;BME280;34860;48.066;14.124;2023-09-19T04:33:16;96358.03;;;17.16;67.50
49044;BME280;34860;48.066;14.124;2023-09-19T04:36:04;96356.03;;;17.17;67.36
49044;BME280;34860;48.066;14.124;2023-09-19T04:39:02;96367.28;;;17.17;67.33
49044;BME280;34860;48.066;14.124;2023-09-19T04:41:54;96367.28;;;17.17;67.35
49044;BME280;34860;48.066;14.124;2023-09-19T04:44:42;96374.91;;;17.16;67.38
49044;BME280;34860;48.066;14.124;2023-09-19T04:47:30;96372.88;;;17.17;67.44
49044;BME280;34860;48.066;14.124;2023-09-19T04:50:18;96374.91;;;17.16;67.40
49044;BME280;34860;48.066;14.124;2023-09-19T04:53:07;96387.69;;;17.17;67.36
49044;BME280;34860;48.066;14.124;2023-09-19T04:55:57;96388.94;;;17.16;67.53
49044;BME280;34860;48.066;14.124;2023-09-19T04:58:45;96399.41;;;17.16;67.31
49044;BME280;34860;48.066;14.124;2023-09-19T05:01:33;96401.25;;;17.19;67.47
49044;BME280;34860;48.066;14.124;2023-09-19T05:04:21;96398.91;;;17.17;67.56
49044;BME280;34860;48.066;14.124;2023-09-19T05:07:09;96398.91;;;17.17;67.56
49044;BME280;34860;48.066;14.124;2023-09-19T05:09:58;96405.28;;;17.18;67.37
49044;BME280;34860;48.066;14.124;2023-09-19T05:12:47;96406.84;;;17.19;67.31
49044;BME280;34860;48.066;14.124;2023-09-19T05:15:59;96419.63;;;17.20;67.35
49044;BME280;34860;48.066;14.124;2023-09-19T05:18:48;96421.19;;;17.21;67.73
49044;BME280;34860;48.066;14.124;2023-09-19T05:21:36;96415.84;;;17.23;67.30
49044;BME280;34860;48.066;14.124;2023-09-19T05:24:25;96426.88;;;17.27;67.36
49044;BME280;34860;48.066;14.124;2023-09-19T05:27:13;96432.50;;;17.27;67.21
49044;BME280;34860;48.066;14.124;2023-09-19T05:30:05;96420.78;;;17.28;67.25
49044;BME280;34860;48.066;14.124;2023-09-19T05:32:55;96438.41;;;17.29;67.33
49044;BME280;34860;48.066;14.124;2023-09-19T05:35:43;96441.50;;;17.31;67.20
49044;BME280;34860;48.066;14.124;2023-09-19T05:38:33;96448.38;;;17.30;67.24
49044;BME280;34860;48.066;14.124;2023-09-19T05:41:21;96449.91;;;17.31;67.30
49044;BME280;34860;48.066;14.124;2023-09-19T05:44:10;96457.09;;;17.32;67.27
49044;BME280;34860;48.066;14.124;2023-09-19T05:46:59;96458.66;;;17.33;67.16
49044;BME280;34860;48.066;14.124;2023-09-19T05:49:47;96460.44;;;17.36;67.26
49044;BME280;34860;48.066;14.124;2023-09-19T05:52:36;96460.75;;;17.38;66.98
49044;BME280;34860;48.066;14.124;2023-09-19T05:55:24;96463.09;;;17.39;67.02
49044;BME280;34860;48.066;14.124;2023-09-19T05:58:12;96461.31;;;17.42;67.12
49044;BME280;34860;48.066;14.124;2023-09-19T06:01:01;96469.56;;;17.46;67.15
49044;BME280;34860;48.066;14.124;2023-09-19T06:03:52;96465.47;;;17.47;67.13
49044;BME280;34860;48.066;14.124;2023-09-19T06:06:40;96475.47;;;17.48;67.12
49044;BME280;34860;48.066;14.124;2023-09-19T06:09:29;96477.00;;;17.49;67.12
49044;BME280;34860;48.066;14.124;2023-09-19T06:12:18;96481.94;;;17.54;67.07
49044;BME280;34860;48.066;14.124;2023-09-19T06:15:07;96482.69;;;17.54;67.19
49044;BME280;34860;48.066;14.124;2023-09-19T06:17:59;96489.38;;;17.57;67.18
49044;BME280;34860;48.066;14.124;2023-09-19T06:20:50;96488.09;;;17.58;67.10
49044;BME280;34860;48.066;14.124;2023-09-19T06:23:38;96489.66;;;17.59;66.97
49044;BME280;34860;48.066;14.124;2023-09-19T06:26:28;96487.94;;;17.61;67.10
49044;BME280;34860;48.066;14.124;2023-09-19T06:29:17;96500.22;;;17.64;66.92
49044;BME280;34860;48.066;14.124;2023-09-19T06:32:07;96492.06;;;17.66;66.94
49044;BME280;34860;48.066;14.124;2023-09-19T06:34:56;96507.94;;;17.69;66.94
49044;BME280;34860;48.066;14.124;2023-09-19T06:37:47;96510.25;;;17.71;67.00
49044;BME280;34860;48.066;14.124;2023-09-19T06:40:35;96517.72;;;17.74;67.03
49044;BME280;34860;48.066;14.124;2023-09-19T06:43:23;96514.72;;;17.77;67.00
49044;BME280;34860;48.066;14.124;2023-09-19T06:46:11;96522.66;;;17.79;66.93
49044;BME280;34860;48.066;14.124;2023-09-19T06:48:59;96523.22;;;17.83;67.06
49044;BME280;34860;48.066;14.124;2023-09-19T06:51:47;96525.81;;;17.87;67.08
49044;BME280;34860;48.066;14.124;2023-09-19T06:54:38;96521.78;;;17.88;67.05
49044;BME280;34860;48.066;14.124;2023-09-19T06:57:26;96533.59;;;17.92;66.91
49044;BME280;34860;48.066;14.124;2023-09-19T07:00:15;96523.13;;;17.92;66.92
49044;BME280;34860;48.066;14.124;2023-09-19T07:03:06;96523.41;;;17.94;66.95
49044;BME280;34860;48.066;14.124;2023-09-19T07:05:58;96534.94;;;17.96;66.87
49044;BME280;34860;48.066;14.124;2023-09-19T07:08:46;96544.44;;;17.99;66.74
49044;BME280;34860;48.066;14.124;2023-09-19T07:11:36;96535.50;;;18.01;66.86
49044;BME280;34860;48.066;14.124;2023-09-19T07:14:25;96550.16;;;18.05;66.82
49044;BME280;34860;48.066;14.124;2023-09-19T07:17:13;96540.72;;;18.08;66.69
49044;BME280;34860;48.066;14.124;2023-09-19T07:20:05;96544.84;;;18.12;66.62
49044;BME280;34860;48.066;14.124;2023-09-19T07:22:54;96558.72;;;18.16;66.36
49044;BME280;34860;48.066;14.124;2023-09-19T07:25:42;96558.03;;;18.21;66.52
49044;BME280;34860;48.066;14.124;2023-09-19T07:28:33;96555.31;;;18.27;66.37
49044;BME280;34860;48.066;14.124;2023-09-19T07:31:21;96567.09;;;18.31;66.35
49044;BME280;34860;48.066;14.124;2023-09-19T07:34:10;96574.06;;;18.36;66.38
49044;BME280;34860;48.066;14.124;2023-09-19T07:36:58;96579.28;;;18.43;66.16
49044;BME280;34860;48.066;14.124;2023-09-19T07:39:46;96584.69;;;18.46;66.04
49044;BME280;34860;48.066;14.124;2023-09-19T07:42:34;96581.66;;;18.50;66.10
49044;BME280;34860;48.066;14.124;2023-09-19T07:45:24;96577.38;;;18.55;66.04
49044;BME280;34860;48.066;14.124;2023-09-19T07:48:12;96588.41;;;18.58;66.14
49044;BME280;34860;48.066;14.124;2023-09-19T07:51:02;96583.34;;;18.62;65.98
49044;BME280;34860;48.066;14.124;2023-09-19T07:53:51;96597.47;;;18.68;65.94
49044;BME280;34860;48.066;14.124;2023-09-19T07:56:39;96602.91;;;18.72;65.57
49044;BME280;34860;48.066;14.124;2023-09-19T07:59:27;96598.81;;;18.73;65.77
49044;BME280;34860;48.066;14.124;2023-09-19T08:02:17;96600.38;;;18.74;65.80
49044;BME280;34860;48.066;14.124;2023-09-19T08:05:05;96599.09;;;18.75;65.62
49044;BME280;34860;48.066;14.124;2023-09-19T08:07:56;96608.88;;;18.79;65.72
49044;BME280;34860;48.066;14.124;2023-09-19T08:10:45;96605.56;;;18.81;65.74
49044;BME280;34860;48.066;14.124;2023-09-19T08:13:35;96609.25;;;18.87;65.60
49044;BME280;34860;48.066;14.124;2023-09-19T08:16:24;96608.75;;;18.88;65.47
49044;BME280;34860;48.066;14.124;2023-09-19T08:19:13;96600.59;;;18.91;65.57
49044;BME280;34860;48.066;14.124;2023-09-19T08:22:02;96614.47;;;18.94;65.34
49044;BME280;34860;48.066;14.124;2023-09-19T08:24:50;96608.63;;;18.98;65.34
49044;BME280;34860;48.066;14.124;2023-09-19T08:27:38;96610.44;;;19.01;65.29
49044;BME280;34860;48.066;14.124;2023-09-19T08:30:26;96612.53;;;19.06;65.30
49044;BME280;34860;48.066;14.124;2023-09-19T08:33:16;96617.19;;;19.09;65.23
49044;BME280;34860;48.066;14.124;2023-09-19T08:36:06;96619.28;;;19.14;64.79
49044;BME280;34860;48.066;14.124;2023-09-19T08:38:55;96617.03;;;19.18;65.15
49044;BME280;34860;48.066;14.124;2023-09-19T08:41:45;96624.50;;;19.21;65.10
49044;BME280;34860;48.066;14.124;2023-09-19T08:44:36;96622.22;;;19.26;64.84
49044;BME280;34860;48.066;14.124;2023-09-19T08:47:33;96620.22;;;19.32;65.03
49044;BME280;34860;48.066;14.124;2023-09-19T08:50:26;96625.38;;;19.33;64.80
49044;BME280;34860;48.066;14.124;2023-09-19T08:53:24;96618.72;;;19.36;65.02
49044;BME280;34860;48.066;14.124;2023-09-19T08:56:17;96623.63;;;19.41;64.86
49044;BME280;34860;48.066;14.124;2023-09-19T08:59:06;96628.03;;;19.42;64.82
49044;BME280;34860;48.066;14.124;2023-09-19T09:01:55;96627.03;;;19.46;64.81
49044;BME280;34860;48.066;14.124;2023-09-19T09:04:45;96625.25;;;19.48;64.70
49044;BME280;34860;48.066;14.124;2023-09-19T09:07:34;96634.25;;;19.52;64.80
49044;BME280;34860;48.066;14.124;2023-09-19T09:10:25;96632.50;;;19.55;64.71
49044;BME280;34860;48.066;14.124;2023-09-19T09:13:14;96636.84;;;19.56;64.46
49044;BME280;34860;48.066;14.124;2023-09-19T09:16:03;96640.72;;;19.58;64.51
49044;BME280;34860;48.066;14.124;2023-09-19T09:18:51;96646.13;;;19.62;64.39
49044;BME280;34860;48.066;14.124;2023-09-19T09:21:41;96646.91;;;19.63;64.51
49044;BME280;34860;48.066;14.124;2023-09-19T09:24:30;96643.88;;;19.66;64.53
49044;BME280;34860;48.066;14.124;2023-09-19T09:27:22;96641.31;;;19.68;64.47
49044;BME280;34860;48.066;14.124;2023-09-19T09:30:35;96641.38;;;19.74;64.37
49044;BME280;34860;48.066;14.124;2023-09-19T09:33:24;96647.56;;;19.78;63.97
49044;BME280;34860;48.066;14.124;2023-09-19T09:36:13;96640.19;;;19.81;64.28
49044;BME280;34860;48.066;14.124;2023-09-19T09:39:02;96644.31;;;19.85;64.23
49044;BME280;34860;48.066;14.124;2023-09-19T09:42:03;96640.50;;;19.88;64.29
49044;BME280;34860;48.066;14.124;2023-09-19T09:45:12;96635.69;;;19.94;64.10
49044;BME280;34860;48.066;14.124;2023-09-19T09:48:02;96645.44;;;19.99;64.23
49044;BME280;34860;48.066;14.124;2023-09-19T09:50:50;96649.88;;;20.06;64.15
49044;BME280;34860;48.066;14.124;2023-09-19T09:53:42;96644.47;;;20.08;64.27
49044;BME280;34860;48.066;14.124;2023-09-19T09:56:32;96654.00;;;20.10;64.34
49044;BME280;34860;48.066;14.124;2023-09-19T09:59:21;96656.59;;;20.14;64.33
49044;BME280;34860;48.066;14.124;2023-09-19T10:02:10;96667.06;;;20.13;64.37
49044;BME280;34860;48.066;14.124;2023-09-19T10:05:11;96648.13;;;20.14;64.51
49044;BME280;34860;48.066;14.124;2023-09-19T10:08:11;96662.72;;;20.12;64.71
49044;BME280;34860;48.066;14.124;2023-09-19T10:11:00;96665.28;;;20.10;64.74
49044;BME280;34860;48.066;14.124;2023-09-19T10:13:53;96656.78;;;20.05;64.94
49044;BME280;34860;48.066;14.124;2023-09-19T10:16:45;96648.25;;;19.99;65.01
49044;BME280;34860;48.066;14.124;2023-09-19T10:19:37;96656.69;;;19.93;65.29
49044;BME280;34860;48.066;14.124;2023-09-19T10:22:28;96653.31;;;19.89;65.20
49044;BME280;34860;48.066;14.124;2023-09-19T10:25:19;96647.13;;;19.85;65.47
49044;BME280;34860;48.066;14.124;2023-09-19T10:28:11;96644.03;;;19.83;65.50
49044;BME280;34860;48.066;14.124;2023-09-19T10:31:00;96639.19;;;19.84;65.74
49044;BME280;34860;48.066;14.124;2023-09-19T10:33:50;96637.38;;;19.86;65.71
49044;BME280;34860;48.066;14.124;2023-09-19T10:36:39;96642.03;;;19.89;65.84
49044;BME280;34860;48.066;14.124;2023-09-19T10:39:31;96631.53;;;19.90;65.75
49044;BME280;34860;48.066;14.124;2023-09-19T10:42:20;96637.44;;;19.92;65.79
49044;BME280;34860;48.066;14.124;2023-09-19T10:45:09;96639.75;;;19.93;65.87
49044;BME280;34860;48.066;14.124;2023-09-19T10:48:00;96653.38;;;19.95;65.85
49044;BME280;34860;48.066;14.124;2023-09-19T10:50:51;96644.63;;;19.93;65.90
49044;BME280;34860;48.066;14.124;2023-09-19T10:53:45;96634.63;;;19.92;65.92
49044;BME280;34860;48.066;14.124;2023-09-19T10:56:37;96637.19;;;19.90;66.18
49044;BME280;34860;48.066;14.124;2023-09-19T10:59:29;96638.19;;;19.92;66.08
49044;BME280;34860;48.066;14.124;2023-09-19T11:02:21;96633.34;;;19.93;65.90
49044;BME280;34860;48.066;14.124;2023-09-19T11:05:11;96628.47;;;19.93;65.87
49044;BME280;34860;48.066;14.124;2023-09-19T11:08:00;96632.56;;;19.92;66.02
49044;BME280;34860;48.066;14.124;2023-09-19T11:10:51;96639.75;;;19.93;65.82
49044;BME280;34860;48.066;14.124;2023-09-19T11:13:40;96633.34;;;19.93;65.94
49044;BME280;34860;48.066;14.124;2023-09-19T11:16:30;96661.56;;;19.93;65.96
49044;BME280;34860;48.066;14.124;2023-09-19T11:19:20;96670.53;;;19.91;65.96
49044;BME280;34860;48.066;14.124;2023-09-19T11:22:10;96657.84;;;19.81;65.89
49044;BME280;34860;48.066;14.124;2023-09-19T11:28:33;96643.22;;;19.51;66.09
49044;BME280;34860;48.066;14.124;2023-09-19T11:31:44;96640.28;;;19.39;66.36
49044;BME280;34860;48.066;14.124;2023-09-19T11:34:45;96637.91;;;19.32;66.49
49044;BME280;34860;48.066;14.124;2023-09-19T11:37:59;96632.22;;;19.27;66.75
49044;BME280;34860;48.066;14.124;2023-09-19T11:44:32;96628.34;;;19.24;66.63
49044;BME280;34860;48.066;14.124;2023-09-19T11:47:26;96627.56;;;19.23;66.58
49044;BME280;34860;48.066;14.124;2023-09-19T11:50:17;96628.84;;;19.22;66.77
49044;BME280;34860;48.066;14.124;2023-09-19T11:53:07;96640.41;;;19.24;66.72
49044;BME280;34860;48.066;14.124;2023-09-19T11:55:58;96637.28;;;19.22;66.81
49044;BME280;34860;48.066;14.124;2023-09-19T11:58:50;96637.28;;;19.22;66.82
49044;BME280;34860;48.066;14.124;2023-09-19T12:01:50;96640.91;;;19.23;66.94
49044;BME280;34860;48.066;14.124;2023-09-19T12:04:43;96648.06;;;19.24;66.86
49044;BME280;34860;48.066;14.124;2023-09-19T12:07:42;96643.50;;;19.27;66.75
49044;BME280;34860;48.066;14.124;2023-09-19T12:10:31;96645.81;;;19.28;66.74
49044;BME280;34860;48.066;14.124;2023-09-19T12:13:19;96642.00;;;19.31;66.51
49044;BME280;34860;48.066;14.124;2023-09-19T12:16:12;96636.38;;;19.31;66.53
49044;BME280;34860;48.066;14.124;2023-09-19T12:19:19;96627.41;;;19.33;66.56
49044;BME280;34860;48.066;14.124;2023-09-19T12:22:10;96620.53;;;19.34;66.46
49044;BME280;34860;48.066;14.124;2023-09-19T12:25:05;96625.66;;;19.35;66.55
49044;BME280;34860;48.066;14.124;2023-09-19T12:27:53;96633.88;;;19.39;66.44
49044;BME280;34860;48.066;14.124;2023-09-19T12:30:42;96630.84;;;19.42;66.31
49044;BME280;34860;48.066;14.124;2023-09-19T12:33:31;96621.88;;;19.44;66.39
49044;BME280;34860;48.066;14.124;2023-09-19T12:36:21;96625.75;;;19.47;66.54
49044;BME280;34860;48.066;14.124;2023-09-19T12:39:22;96617.06;;;19.50;66.48
49044;BME280;34860;48.066;14.124;2023-09-19T12:42:11;96614.78;;;19.54;66.51
49044;BME280;34860;48.066;14.124;2023-09-19T12:45:01;96614.59;;;19.58;66.46
49044;BME280;34860;48.066;14.124;2023-09-19T12:48:17;96610.28;;;19.63;66.43
49044;BME280;34860;48.066;14.124;2023-09-19T12:51:08;96605.16;;;19.67;66.54
49044;BME280;34860;48.066;14.124;2023-09-19T12:53:59;96610.84;;;19.72;66.47
49044;BME280;34860;48.066;14.124;2023-09-19T12:56:49;96613.75;;;19.78;66.53
49044;BME280;34860;48.066;14.124;2023-09-19T12:59:37;96608.16;;;19.84;66.50
49044;BME280;34860;48.066;14.124;2023-09-19T13:02:26;96601.78;;;19.89;66.49
49044;BME280;34860;48.066;14.124;2023-09-19T13:05:15;96598.22;;;19.94;66.58
49044;BME280;34860;48.066;14.124;2023-09-19T13:08:18;96589.81;;;20.00;66.50
49044;BME280;34860;48.066;14.124;2023-09-19T13:11:11;96590.63;;;20.06;66.25
49044;BME280;34860;48.066;14.124;2023-09-19T13:14:18;96587.06;;;20.11;66.34
49044;BME280;34860;48.066;14.124;2023-09-19T13:17:08;96593.72;;;20.13;66.20
49044;BME280;34860;48.066;14.124;2023-09-19T13:20:02;96587.34;;;20.19;66.15
49044;BME280;34860;48.066;14.124;2023-09-19T13:22:54;96589.94;;;20.22;65.99
49044;BME280;34860;48.066;14.124;2023-09-19T13:25:46;96595.09;;;20.29;65.97
49044;BME280;34860;48.066;14.124;2023-09-19T13:28:34;96589.22;;;20.33;65.78
49044;BME280;34860;48.066;14.124;2023-09-19T13:31:24;96583.09;;;20.40;65.65
49044;BME280;34860;48.066;14.124;2023-09-19T13:34:12;96594.94;;;20.44;65.56
49044;BME280;34860;48.066;14.124;2023-09-19T13:37:02;96589.31;;;20.50;65.49
49044;BME280;34860;48.066;14.124;2023-09-19T13:39:51;96589.09;;;20.54;65.35
49044;BME280;34860;48.066;14.124;2023-09-19T13:42:39;96588.84;;;20.57;65.49
49044;BME280;34860;48.066;14.124;2023-09-19T13:45:27;96597.06;;;20.61;65.33
49044;BME280;34860;48.066;14.124;2023-09-19T13:48:18;96592.75;;;20.65;65.15
49044;BME280;34860;48.066;14.124;2023-09-19T13:51:08;96604.06;;;20.71;65.03
49044;BME280;34860;48.066;14.124;2023-09-19T13:53:57;96626.69;;;20.77;64.86
49044;BME280;34860;48.066;14.124;2023-09-19T13:56:46;96620.28;;;20.82;64.63
49044;BME280;34860;48.066;14.124;2023-09-19T13:59:34;96629.53;;;20.88;64.65
49044;BME280;34860;48.066;14.124;2023-09-19T14:02:22;96631.34;;;20.91;64.59
49044;BME280;34860;48.066;14.124;2023-09-19T14:05:12;96629.28;;;20.92;64.57
49044;BME280;34860;48.066;14.124;2023-09-19T14:08:01;96633.91;;;20.89;64.59
49044;BME280;34860;48.066;14.124;2023-09-19T14:10:50;96648.28;;;20.85;64.83
49044;BME280;34860;48.066;14.124;2023-09-19T14:13:38;96647.00;;;20.81;64.84
49044;BME280;34860;48.066;14.124;2023-09-19T14:16:26;96649.78;;;20.75;64.99
49044;BME280;34860;48.066;14.124;2023-09-19T14:19:16;96649.25;;;20.71;65.11
49044;BME280;34860;48.066;14.124;2023-09-19T14:22:06;96647.66;;;20.64;65.22
49044;BME280;34860;48.066;14.124;2023-09-19T14:24:54;96655.59;;;20.60;65.15
49044;BME280;34860;48.066;14.124;2023-09-19T14:27:42;96648.63;;;20.56;65.33
49044;BME280;34860;48.066;14.124;2023-09-19T14:30:31;96652.47;;;20.53;65.29
49044;BME280;34860;48.066;14.124;2023-09-19T14:33:19;96654.47;;;20.46;65.29
49044;BME280;34860;48.066;14.124;2023-09-19T14:36:09;96639.34;;;20.44;65.45
49044;BME280;34860;48.066;14.124;2023-09-19T14:39:00;96642.38;;;20.40;65.46
49044;BME280;34860;48.066;14.124;2023-09-19T14:41:49;96640.56;;;20.37;65.41
49044;BME280;34860;48.066;14.124;2023-09-19T14:44:36;96646.94;;;20.32;65.47
49044;BME280;34860;48.066;14.124;2023-09-19T14:47:25;96633.84;;;20.29;65.42
49044;BME280;34860;48.066;14.124;2023-09-19T14:50:14;96636.41;;;20.27;65.62
49044;BME280;34860;48.066;14.124;2023-09-19T14:53:03;96629.94;;;20.21;65.67
49044;BME280;34860;48.066;14.124;2023-09-19T14:56:00;96627.06;;;20.15;65.61
49044;BME280;34860;48.066;14.124;2023-09-19T14:58:49;96627.31;;;20.11;65.79
49044;BME280;34860;48.066;14.124;2023-09-19T15:01:37;96631.13;;;20.08;65.78